createdAt,value
2016-08-04T00:00:22.501Z,17.82
2016-08-04T00:01:22.506Z,17.83
2016-08-04T00:02:22.549Z,17.71
2016-08-04T00:03:22.566Z,17.64
2016-08-04T00:04:22.578Z,17.57
2016-08-04T00:05:22.589Z,17.68
2016-08-04T00:06:22.608Z,17.63
2016-08-04T00:07:22.637Z,17.6
2016-08-04T00:08:22.655Z,17.49
2016-08-04T00:09:22.677Z,17.57
2016-08-04T00:10:22.702Z,17.63
2016-08-04T00:11:22.722Z,17.46
2016-08-04T00:12:22.731Z,17.44
2016-08-04T00:13:22.756Z,17.39
2016-08-04T00:14:22.777Z,17.44
2016-08-04T00:15:22.787Z,17.38
2016-08-04T00:16:22.804Z,17.44
2016-08-04T00:17:22.833Z,17.36
2016-08-04T00:18:22.847Z,17.41
2016-08-04T00:19:22.874Z,17.41
2016-08-04T00:20:22.884Z,17.36
2016-08-04T00:21:22.910Z,17.26
2016-08-04T00:22:22.924Z,17.29
2016-08-04T00:23:22.950Z,17.27
2016-08-04T00:24:22.956Z,17.27
2016-08-04T00:25:22.983Z,17.15
2016-08-04T00:26:23.003Z,17.19
2016-08-04T00:27:23.020Z,16.99
2016-08-04T00:28:23.043Z,17.14
2016-08-04T00:29:23.060Z,17.06
2016-08-04T00:30:23.080Z,17.04
2016-08-04T00:31:23.100Z,17.05
2016-08-04T00:32:23.114Z,17.08
2016-08-04T00:33:23.138Z,17.09
2016-08-04T00:34:23.162Z,17.02
2016-08-04T00:35:23.172Z,17.01
2016-08-04T00:36:23.190Z,17.14
2016-08-04T00:37:23.211Z,17.12
2016-08-04T00:38:23.229Z,17.12
2016-08-04T00:39:23.251Z,17.09
2016-08-04T00:40:23.269Z,17.12
2016-08-04T00:41:23.296Z,17.14
2016-08-04T00:42:23.307Z,17.14
2016-08-04T00:43:23.336Z,17.15
2016-08-04T00:44:23.341Z,17.14
2016-08-04T00:45:23.370Z,17.19
2016-08-04T00:46:23.381Z,17.24
2016-08-04T00:47:23.411Z,17.09
2016-08-04T00:48:23.428Z,17.09
2016-08-04T00:49:23.444Z,17.04
2016-08-04T00:50:23.457Z,17.09
2016-08-04T00:51:23.488Z,17.16
2016-08-04T00:52:23.504Z,17.11
2016-08-04T00:53:23.521Z,17.14
2016-08-04T00:54:23.530Z,17.15
2016-08-04T00:55:23.559Z,17.12
2016-08-04T00:56:23.576Z,17.14
2016-08-04T00:57:23.592Z,17.14
2016-08-04T00:58:23.610Z,17.09
2016-08-04T00:59:23.636Z,17.15
2016-08-04T01:00:23.653Z,17.09
2016-08-04T01:01:23.672Z,17.2
2016-08-04T01:02:23.682Z,17.16
2016-08-04T01:03:23.709Z,17.19
2016-08-04T01:04:23.731Z,17.15
2016-08-04T01:05:23.752Z,17.15
2016-08-04T01:06:23.772Z,17.14
2016-08-04T01:07:23.789Z,17.14
2016-08-04T01:08:23.814Z,17.2
2016-08-04T01:09:23.845Z,17.26
2016-08-04T01:10:23.848Z,17.27
2016-08-04T01:11:23.873Z,17.23
2016-08-04T01:12:23.891Z,17.33
2016-08-04T01:13:23.902Z,17.38
2016-08-04T01:14:23.939Z,17.36
2016-08-04T01:15:23.946Z,17.42
2016-08-04T01:16:23.952Z,17.36
2016-08-04T01:17:23.979Z,17.38
2016-08-04T01:18:24.010Z,17.42
2016-08-04T01:19:24.020Z,17.41
2016-08-04T01:20:24.036Z,17.33
2016-08-04T01:21:24.083Z,17.39
2016-08-04T01:22:24.074Z,17.29
2016-08-04T01:23:24.102Z,17.36
2016-08-04T01:24:24.120Z,17.31
2016-08-04T01:25:24.133Z,17.31
2016-08-04T01:26:24.150Z,17.39
2016-08-04T01:27:24.162Z,17.29
2016-08-04T01:28:24.192Z,17.27
2016-08-04T01:29:24.214Z,17.27
2016-08-04T01:30:24.231Z,17.24
2016-08-04T01:31:24.257Z,17.26
2016-08-04T01:32:24.268Z,17.27
2016-08-04T01:33:24.292Z,17.23
2016-08-04T01:34:24.309Z,17.26
2016-08-04T01:35:24.335Z,17.15
2016-08-04T01:36:24.350Z,17.19
2016-08-04T01:37:24.378Z,17.3
2016-08-04T01:38:24.379Z,17.29
2016-08-04T01:39:24.407Z,17.27
2016-08-04T01:40:24.423Z,17.29
2016-08-04T01:41:24.439Z,17.22
2016-08-04T01:42:24.465Z,17.27
2016-08-04T01:43:24.478Z,17.23
2016-08-04T01:44:24.506Z,17.26
2016-08-04T01:45:24.515Z,17.3
2016-08-04T01:46:24.531Z,17.29
2016-08-04T01:47:24.577Z,17.27
2016-08-04T01:48:24.581Z,17.3
2016-08-04T01:49:24.602Z,17.23
2016-08-04T01:50:24.604Z,17.29
2016-08-04T01:51:24.644Z,17.29
2016-08-04T01:52:24.651Z,17.2
2016-08-04T01:53:24.686Z,17.26
2016-08-04T01:54:24.688Z,17.27
2016-08-04T01:55:24.704Z,17.27
2016-08-04T01:56:24.730Z,17.26
2016-08-04T01:57:24.746Z,17.27
2016-08-04T01:58:24.767Z,17.26
2016-08-04T01:59:24.788Z,17.12
2016-08-04T02:00:24.798Z,17.24
2016-08-04T02:01:24.825Z,17.22
2016-08-04T02:02:24.845Z,17.24
2016-08-04T02:03:24.872Z,17.26
2016-08-04T02:04:24.877Z,17.26
2016-08-04T02:05:24.896Z,17.15
2016-08-04T02:06:24.919Z,17.15
2016-08-04T02:07:24.950Z,17.12
2016-08-04T02:08:24.967Z,17.15
2016-08-04T02:09:24.973Z,17.14
2016-08-04T02:10:24.996Z,17.12
2016-08-04T02:11:25.019Z,17.16
2016-08-04T02:12:25.031Z,17.19
2016-08-04T02:13:25.044Z,17.15
2016-08-04T02:14:25.074Z,17.24
2016-08-04T02:15:25.089Z,17.16
2016-08-04T02:16:25.119Z,17.22
2016-08-04T02:17:25.133Z,17.2
2016-08-04T02:18:25.148Z,17.14
2016-08-04T02:19:25.171Z,17.15
2016-08-04T02:20:25.204Z,17.26
2016-08-04T02:21:25.204Z,17.26
2016-08-04T02:22:25.228Z,17.29
2016-08-04T02:23:25.248Z,17.22
2016-08-04T02:24:25.262Z,17.29
2016-08-04T02:25:25.286Z,17.24
2016-08-04T02:26:25.299Z,17.27
2016-08-04T02:27:25.326Z,17.23
2016-08-04T02:28:25.338Z,17.24
2016-08-04T02:29:25.362Z,17.29
2016-08-04T02:30:25.383Z,17.23
2016-08-04T02:31:25.401Z,17.29
2016-08-04T02:32:25.418Z,17.27
2016-08-04T02:33:25.431Z,17.27
2016-08-04T02:34:25.459Z,17.23
2016-08-04T02:35:25.535Z,17.24
2016-08-04T02:36:25.493Z,17.24
2016-08-04T02:37:25.513Z,17.27
2016-08-04T02:38:25.528Z,17.31
2016-08-04T02:39:25.554Z,17.29
2016-08-04T02:40:25.568Z,17.24
2016-08-04T02:41:25.599Z,17.34
2016-08-04T02:42:25.599Z,17.39
2016-08-04T02:43:25.623Z,17.38
2016-08-04T02:44:25.647Z,17.36
2016-08-04T02:45:25.672Z,17.36
2016-08-04T02:46:25.694Z,17.36
2016-08-04T02:47:25.694Z,17.34
2016-08-04T02:48:25.716Z,17.38
2016-08-04T02:49:25.743Z,17.34
2016-08-04T02:50:25.816Z,17.36
2016-08-04T02:51:25.793Z,17.3
2016-08-04T02:52:25.798Z,17.33
2016-08-04T02:53:25.819Z,17.42
2016-08-04T02:54:25.838Z,17.38
2016-08-04T02:55:25.866Z,17.31
2016-08-04T02:56:25.883Z,17.29
2016-08-04T02:57:25.892Z,17.27
2016-08-04T02:58:25.917Z,17.3
2016-08-04T02:59:25.931Z,17.39
2016-08-04T03:00:25.977Z,17.34
2016-08-04T03:01:25.974Z,17.33
2016-08-04T03:02:25.996Z,17.34
2016-08-04T03:03:26.013Z,17.29
2016-08-04T03:04:26.025Z,17.29
2016-08-04T03:06:26.068Z,17.33
2016-08-04T03:07:26.093Z,17.27
2016-08-04T03:08:26.109Z,17.3
2016-08-04T03:09:26.124Z,17.24
2016-08-04T03:10:26.144Z,17.34
2016-08-04T03:11:26.173Z,17.3
2016-08-04T03:12:26.191Z,17.34
2016-08-04T03:13:26.203Z,17.27
2016-08-04T03:14:26.232Z,17.26
2016-08-04T03:15:26.247Z,17.3
2016-08-04T03:16:26.264Z,17.24
2016-08-04T03:17:26.288Z,17.27
2016-08-04T03:18:26.294Z,17.29
2016-08-04T03:19:26.327Z,17.3
2016-08-04T03:21:26.360Z,17.23
2016-08-04T03:22:26.391Z,17.24
2016-08-04T03:23:26.398Z,17.3
2016-08-04T03:24:26.413Z,17.27
2016-08-04T03:25:26.433Z,17.26
2016-08-04T03:26:26.453Z,17.29
2016-08-04T03:27:26.471Z,17.24
2016-08-04T03:28:26.493Z,17.3
2016-08-04T03:29:26.515Z,17.26
2016-08-04T03:30:26.533Z,17.23
2016-08-04T03:31:26.557Z,17.24
2016-08-04T03:32:26.571Z,17.26
2016-08-04T03:33:26.592Z,17.29
2016-08-04T03:34:26.606Z,17.2
2016-08-04T03:36:26.640Z,17.26
2016-08-04T03:37:26.667Z,17.27
2016-08-04T03:38:26.689Z,17.26
2016-08-04T03:39:26.702Z,17.29
2016-08-04T03:40:26.722Z,17.23
2016-08-04T03:41:26.738Z,17.27
2016-08-04T03:42:26.765Z,17.27
2016-08-04T03:43:26.795Z,17.26
2016-08-04T03:44:26.802Z,17.26
2016-08-04T03:45:26.814Z,17.26
2016-08-04T03:46:26.840Z,17.22
2016-08-04T03:47:26.859Z,17.16
2016-08-04T03:48:26.874Z,17.16
2016-08-04T03:49:26.893Z,17.27
2016-08-04T03:51:26.935Z,17.23
2016-08-04T03:52:26.952Z,17.26
2016-08-04T03:53:26.966Z,17.3
2016-08-04T03:54:26.998Z,17.29
2016-08-04T03:55:27.015Z,17.2
2016-08-04T03:56:27.039Z,17.22
2016-08-04T03:57:27.045Z,17.27
2016-08-04T03:58:27.077Z,17.27
2016-08-04T03:59:27.082Z,17.27
2016-08-04T04:00:27.107Z,17.23
2016-08-04T04:01:27.116Z,17.29
2016-08-04T04:02:27.141Z,17.24
2016-08-04T04:03:27.171Z,17.27
2016-08-04T04:04:27.184Z,17.24
2016-08-04T04:05:27.206Z,17.27
2016-08-04T04:06:27.219Z,17.27
2016-08-04T04:07:27.245Z,17.27
2016-08-04T04:08:27.254Z,17.2
2016-08-04T04:09:27.282Z,17.26
2016-08-04T04:10:27.297Z,17.16
2016-08-04T04:11:27.318Z,17.12
2016-08-04T04:12:27.339Z,17.26
2016-08-04T04:13:27.368Z,17.24
2016-08-04T04:14:27.376Z,17.27
2016-08-04T04:15:27.399Z,17.14
2016-08-04T04:16:27.430Z,17.09
2016-08-04T04:17:27.431Z,17.08
2016-08-04T04:18:27.456Z,17.09
2016-08-04T04:19:27.476Z,17.14
2016-08-04T04:20:27.481Z,17.14
2016-08-04T04:21:27.509Z,17.11
2016-08-04T04:22:27.523Z,17.09
2016-08-04T04:23:27.563Z,17.15
2016-08-04T04:24:27.572Z,17.14
2016-08-04T04:25:27.589Z,17.22
2016-08-04T04:26:27.611Z,17.24
2016-08-04T04:27:27.631Z,17.11
2016-08-04T04:28:27.640Z,17.19
2016-08-04T04:29:27.672Z,17.14
2016-08-04T04:30:27.686Z,17.16
2016-08-04T04:31:27.709Z,17.22
2016-08-04T04:32:27.719Z,17.22
2016-08-04T04:33:27.738Z,17.22
2016-08-04T04:34:27.762Z,17.24
2016-08-04T04:35:27.790Z,17.23
2016-08-04T04:36:27.796Z,17.26
2016-08-04T04:37:27.822Z,17.29
2016-08-04T04:38:27.833Z,17.27
2016-08-04T04:39:27.865Z,17.29
2016-08-04T04:40:27.871Z,17.27
2016-08-04T04:41:27.899Z,17.33
2016-08-04T04:42:27.912Z,17.36
2016-08-04T04:43:27.930Z,17.33
2016-08-04T04:44:27.961Z,17.38
2016-08-04T04:45:27.961Z,17.36
2016-08-04T04:46:27.996Z,17.42
2016-08-04T04:47:28.006Z,17.38
2016-08-04T04:48:28.027Z,17.33
2016-08-04T04:49:28.040Z,17.36
2016-08-04T04:50:28.072Z,17.39
2016-08-04T04:51:28.087Z,17.36
2016-08-04T04:52:28.106Z,17.45
2016-08-04T04:53:28.121Z,17.44
2016-08-04T04:54:28.137Z,17.44
2016-08-04T04:55:28.167Z,17.56
2016-08-04T04:56:28.176Z,17.48
2016-08-04T04:57:28.198Z,17.51
2016-08-04T04:58:28.220Z,17.54
2016-08-04T04:59:28.242Z,17.56
2016-08-04T05:00:28.260Z,17.57
2016-08-04T05:01:28.277Z,17.64
2016-08-04T05:02:28.296Z,17.65
2016-08-04T05:03:28.323Z,17.59
2016-08-04T05:04:28.339Z,17.7
2016-08-04T05:05:28.350Z,17.71
2016-08-04T05:06:28.388Z,17.72
2016-08-04T05:07:28.394Z,17.71
2016-08-04T05:08:28.415Z,17.71
2016-08-04T05:09:28.434Z,17.72
2016-08-04T05:10:28.448Z,17.83
2016-08-04T05:11:28.479Z,17.79
2016-08-04T05:12:28.500Z,17.85
2016-08-04T05:13:28.513Z,17.8
2016-08-04T05:14:28.540Z,17.92
2016-08-04T05:15:28.545Z,17.9
2016-08-04T05:16:28.561Z,17.89
2016-08-04T05:17:28.586Z,17.89
2016-08-04T05:18:28.605Z,17.92
2016-08-04T05:19:28.634Z,17.95
2016-08-04T05:20:28.646Z,17.9
2016-08-04T05:21:28.665Z,17.89
2016-08-04T05:22:28.691Z,17.95
2016-08-04T05:23:28.705Z,17.95
2016-08-04T05:24:28.722Z,18.01
2016-08-04T05:25:28.747Z,18.03
2016-08-04T05:26:28.756Z,18.04
2016-08-04T05:27:28.773Z,18.15
2016-08-04T05:28:28.801Z,18.25
2016-08-04T05:29:28.828Z,18.18
2016-08-04T05:30:28.832Z,18.05
2016-08-04T05:31:28.856Z,18.22
2016-08-04T05:32:28.884Z,18.19
2016-08-04T05:33:28.898Z,18.2
2016-08-04T05:34:28.919Z,18.26
2016-08-04T05:35:28.935Z,18.19
2016-08-04T05:36:28.956Z,18.22
2016-08-04T05:37:28.971Z,18.18
2016-08-04T05:38:28.991Z,18.35
2016-08-04T05:39:29.020Z,18.38
2016-08-04T05:40:29.048Z,18.37
2016-08-04T05:41:29.047Z,18.37
2016-08-04T05:42:29.080Z,18.37
2016-08-04T05:43:29.097Z,18.4
2016-08-04T05:44:29.118Z,18.52
2016-08-04T05:45:29.140Z,18.49
2016-08-04T05:46:29.151Z,18.45
2016-08-04T05:47:29.179Z,18.47
2016-08-04T05:48:29.192Z,18.56
2016-08-04T05:49:29.212Z,18.58
2016-08-04T05:50:29.229Z,18.56
2016-08-04T05:51:29.258Z,18.65
2016-08-04T05:52:29.282Z,18.68
2016-08-04T05:53:29.284Z,18.78
2016-08-04T05:54:29.314Z,18.71
2016-08-04T05:55:29.331Z,18.89
2016-08-04T05:56:29.355Z,18.78
2016-08-04T05:57:29.363Z,18.78
2016-08-04T05:58:29.400Z,18.89
2016-08-04T05:59:29.403Z,18.84
2016-08-04T06:00:29.440Z,18.93
2016-08-04T06:01:29.448Z,18.9
2016-08-04T06:02:29.467Z,18.98
2016-08-04T06:03:29.497Z,18.9
2016-08-04T06:04:29.502Z,18.99
2016-08-04T06:05:29.525Z,19.04
2016-08-04T06:06:29.545Z,19.07
2016-08-04T06:07:29.572Z,19
2016-08-04T06:08:29.593Z,19.02
2016-08-04T06:09:29.611Z,19.04
2016-08-04T06:10:29.629Z,19.15
2016-08-04T06:11:29.649Z,19.16
2016-08-04T06:12:29.676Z,19.11
2016-08-04T06:13:29.697Z,19.22
2016-08-04T06:14:29.710Z,19.3
2016-08-04T06:15:29.730Z,19.34
2016-08-04T06:16:29.752Z,19.33
2016-08-04T06:17:29.777Z,19.45
2016-08-04T06:18:29.787Z,19.73
2016-08-04T06:19:29.814Z,19.99
2016-08-04T06:20:29.828Z,20.03
2016-08-04T06:21:29.852Z,20.19
2016-08-04T06:22:29.869Z,20.37
2016-08-04T06:23:29.889Z,20.4
2016-08-04T06:24:29.912Z,20.43
2016-08-04T06:25:29.937Z,20.31
2016-08-04T06:26:29.957Z,20.19
2016-08-04T06:27:29.974Z,20.36
2016-08-04T06:28:29.996Z,20.32
2016-08-04T06:29:30.009Z,20.34
2016-08-04T06:30:30.030Z,20.36
2016-08-04T06:31:30.063Z,20.28
2016-08-04T06:32:30.078Z,20.22
2016-08-04T06:33:30.095Z,20.13
2016-08-04T06:34:30.109Z,20.14
2016-08-04T06:35:30.141Z,20.22
2016-08-04T06:36:30.155Z,20.19
2016-08-04T06:37:30.187Z,20.25
2016-08-04T06:38:30.204Z,20.22
2016-08-04T06:39:30.223Z,20.22
2016-08-04T06:40:30.232Z,20.26
2016-08-04T06:41:30.268Z,20.21
2016-08-04T06:42:30.287Z,20.4
2016-08-04T06:43:30.303Z,20.56
2016-08-04T06:44:30.316Z,20.72
2016-08-04T06:45:30.338Z,20.78
2016-08-04T06:46:30.369Z,20.75
2016-08-04T06:47:30.382Z,20.92
2016-08-04T06:48:30.407Z,20.95
2016-08-04T06:49:30.430Z,20.87
2016-08-04T06:50:30.451Z,20.84
2016-08-04T06:51:30.489Z,20.84
2016-08-04T06:52:30.494Z,20.85
2016-08-04T06:53:30.513Z,20.75
2016-08-04T06:54:30.529Z,20.8
2016-08-04T06:55:30.544Z,20.77
2016-08-04T06:56:30.566Z,20.78
2016-08-04T06:57:30.598Z,20.78
2016-08-04T06:58:30.614Z,20.81
2016-08-04T06:59:30.636Z,20.9
2016-08-04T07:00:30.659Z,21
2016-08-04T07:01:30.681Z,20.95
2016-08-04T07:02:30.694Z,21.02
2016-08-04T07:03:30.726Z,21.15
2016-08-04T07:04:30.742Z,21.3
2016-08-04T07:05:30.764Z,21.22
2016-08-04T07:06:30.826Z,21.36
2016-08-04T07:07:30.800Z,21.42
2016-08-04T07:08:30.826Z,21.52
2016-08-04T07:09:30.840Z,21.48
2016-08-04T07:10:30.867Z,21.29
2016-08-04T07:11:30.889Z,21.24
2016-08-04T07:12:30.911Z,21.2
2016-08-04T07:13:30.928Z,21
2016-08-04T07:14:30.957Z,20.92
2016-08-04T07:15:30.977Z,20.92
2016-08-04T07:16:30.999Z,20.97
2016-08-04T07:17:31.017Z,20.88
2016-08-04T07:18:31.039Z,20.72
2016-08-04T07:19:31.058Z,20.65
2016-08-04T07:20:31.078Z,20.65
2016-08-04T07:21:31.119Z,20.55
2016-08-04T07:22:31.123Z,20.36
2016-08-04T07:23:31.146Z,20.43
2016-08-04T07:24:31.174Z,20.39
2016-08-04T07:25:31.196Z,20.29
2016-08-04T07:26:31.215Z,20.18
2016-08-04T07:27:31.231Z,20.18
2016-08-04T07:28:31.249Z,20.28
2016-08-04T07:29:31.272Z,20.21
2016-08-04T07:30:31.297Z,20.21
2016-08-04T07:31:31.313Z,20.21
2016-08-04T07:32:31.329Z,20.21
2016-08-04T07:33:31.348Z,20.14
2016-08-04T07:34:31.366Z,20.16
2016-08-04T07:35:31.397Z,20.14
2016-08-04T07:36:31.438Z,20.22
2016-08-04T07:37:31.451Z,20.18
2016-08-04T07:38:31.466Z,20.13
2016-08-04T07:39:31.481Z,20.16
2016-08-04T07:42:03.549Z,20.31
2016-08-04T07:42:44.532Z,20.36
2016-08-04T07:44:44.616Z,20.31
2016-08-04T07:46:44.647Z,20.19
2016-08-04T07:48:16.667Z,20.26
2016-08-04T07:48:44.650Z,20.37
2016-08-04T07:49:44.679Z,20.32
2016-08-04T07:50:44.735Z,20.41
2016-08-04T07:51:44.723Z,20.39
2016-08-04T07:52:44.778Z,20.37
2016-08-04T07:53:44.754Z,20.32
2016-08-04T07:54:44.775Z,20.31
2016-08-04T07:55:44.787Z,20.34
2016-08-04T07:56:44.819Z,20.39
2016-08-04T07:57:44.830Z,20.36
2016-08-04T07:58:44.870Z,20.44
2016-08-04T07:59:44.872Z,20.44
2016-08-04T08:00:44.899Z,20.41
2016-08-04T08:01:44.918Z,20.41
2016-08-04T08:02:44.949Z,20.36
2016-08-04T08:03:44.962Z,20.52
2016-08-04T08:04:44.974Z,20.5
2016-08-04T08:05:45.011Z,20.58
2016-08-04T08:06:45.022Z,20.62
2016-08-04T08:07:45.043Z,20.66
2016-08-04T08:08:45.067Z,20.74
2016-08-04T08:09:45.086Z,20.85
2016-08-04T08:10:45.108Z,20.92
2016-08-04T08:11:45.126Z,20.9
2016-08-04T08:12:45.149Z,20.9
2016-08-04T08:13:45.168Z,20.93
2016-08-04T08:14:45.192Z,21.02
2016-08-04T08:15:45.205Z,21.12
2016-08-04T08:16:45.228Z,21.27
2016-08-04T08:17:45.253Z,21.32
2016-08-04T08:18:45.272Z,21.37
2016-08-04T08:19:45.300Z,21.48
2016-08-04T08:20:45.317Z,21.51
2016-08-04T08:21:45.338Z,21.51
2016-08-04T08:22:45.359Z,21.61
2016-08-04T08:23:45.376Z,21.58
2016-08-04T08:24:45.411Z,21.69
2016-08-04T08:25:45.426Z,21.73
2016-08-04T08:26:45.442Z,21.69
2016-08-04T08:27:45.473Z,21.82
2016-08-04T08:28:45.476Z,21.95
2016-08-04T08:29:45.504Z,21.99
2016-08-04T08:30:45.526Z,22
2016-08-04T08:31:45.555Z,22.18
2016-08-04T08:32:45.575Z,22.15
2016-08-04T08:33:45.592Z,22.23
2016-08-04T08:34:45.620Z,22.15
2016-08-04T08:35:45.638Z,22.3
2016-08-04T08:36:45.675Z,22.29
2016-08-04T08:37:45.690Z,22.41
2016-08-04T08:38:45.695Z,22.36
2016-08-04T08:39:45.729Z,22.51
2016-08-04T08:40:45.743Z,22.39
2016-08-04T08:41:45.774Z,22.32
2016-08-04T08:42:45.787Z,22.32
2016-08-04T08:43:45.815Z,22.23
2016-08-04T08:44:45.827Z,22.25
2016-08-04T08:45:45.849Z,22.28
2016-08-04T08:46:45.870Z,22.32
2016-08-04T08:47:45.890Z,22.3
2016-08-04T08:48:45.918Z,22.23
2016-08-04T08:49:45.932Z,22.1
2016-08-04T08:50:45.969Z,22.06
2016-08-04T08:51:46.004Z,21.93
2016-08-04T08:52:46.008Z,22.02
2016-08-04T08:53:46.020Z,22.07
2016-08-04T08:54:46.035Z,21.96
2016-08-04T08:55:46.075Z,21.92
2016-08-04T08:56:46.096Z,21.93
2016-08-04T08:57:46.112Z,21.98
2016-08-04T08:58:46.131Z,22.1
2016-08-04T08:59:46.159Z,22.17
2016-08-04T09:00:46.186Z,22.17
2016-08-04T09:01:46.204Z,22.22
2016-08-04T09:02:46.225Z,22.13
2016-08-04T09:03:46.239Z,22.17
2016-08-04T09:04:46.262Z,22.25
2016-08-04T09:05:46.287Z,22.39
2016-08-04T09:06:46.312Z,22.43
2016-08-04T09:07:46.332Z,22.45
2016-08-04T09:08:46.362Z,22.57
2016-08-04T09:09:46.372Z,22.51
2016-08-04T09:10:46.391Z,22.44
2016-08-04T09:11:46.427Z,22.43
2016-08-04T09:12:46.436Z,22.39
2016-08-04T09:13:46.467Z,22.23
2016-08-04T09:14:46.490Z,22.14
2016-08-04T09:15:46.500Z,22.11
2016-08-04T09:16:46.528Z,22.22
2016-08-04T09:17:46.550Z,22.11
2016-08-04T09:18:46.571Z,22.13
2016-08-04T09:19:46.594Z,22.06
2016-08-04T09:20:46.658Z,21.85
2016-08-04T09:21:46.678Z,21.82
2016-08-04T09:22:46.654Z,21.76
2016-08-04T09:23:46.711Z,21.7
2016-08-04T09:24:46.755Z,21.79
2016-08-04T09:25:46.772Z,21.79
2016-08-04T09:26:46.789Z,21.76
2016-08-04T09:27:46.786Z,21.92
2016-08-04T09:28:46.793Z,22.04
2016-08-04T09:29:46.811Z,22
2016-08-04T09:30:46.873Z,22.06
2016-08-04T09:31:46.860Z,22.18
2016-08-04T09:32:46.882Z,22.25
2016-08-04T09:33:46.890Z,22.15
2016-08-04T09:34:46.916Z,22.29
2016-08-04T09:35:46.948Z,22.36
2016-08-04T09:37:46.994Z,22.39
2016-08-04T09:38:47.007Z,22.39
2016-08-04T09:39:47.074Z,22.51
2016-08-04T09:40:47.070Z,22.36
2016-08-04T09:41:47.109Z,22.41
2016-08-04T09:42:47.094Z,22.45
2016-08-04T09:43:47.167Z,22.51
2016-08-04T09:44:47.133Z,22.62
2016-08-04T09:45:47.160Z,22.63
2016-08-04T09:46:47.177Z,22.68
2016-08-04T09:47:47.205Z,22.65
2016-08-04T09:48:47.223Z,22.59
2016-08-04T09:49:47.246Z,22.57
2016-08-04T09:50:47.268Z,22.44
2016-08-04T09:51:47.287Z,22.43
2016-08-04T09:52:47.310Z,22.45
2016-08-04T09:53:47.333Z,22.57
2016-08-04T09:54:47.357Z,22.5
2016-08-04T09:55:47.381Z,22.39
2016-08-04T09:56:47.406Z,22.47
2016-08-04T09:57:47.422Z,22.3
2016-08-04T09:58:47.446Z,22.36
2016-08-04T09:59:47.469Z,22.44
2016-08-04T10:00:47.489Z,22.53
2016-08-04T10:01:47.513Z,22.55
2016-08-04T10:02:47.531Z,22.38
2016-08-04T10:03:47.548Z,22.39
2016-08-04T10:04:47.573Z,22.59
2016-08-04T10:05:47.600Z,22.76
2016-08-04T10:06:47.619Z,22.75
2016-08-04T10:07:47.644Z,23
2016-08-04T10:08:47.668Z,23.13
2016-08-04T10:09:47.687Z,23.21
2016-08-04T10:10:47.710Z,23.12
2016-08-04T10:11:47.727Z,23.03
2016-08-04T10:12:47.755Z,22.93
2016-08-04T10:13:47.778Z,22.93
2016-08-04T10:14:47.796Z,22.91
2016-08-04T10:15:47.816Z,23.02
2016-08-04T10:17:02.692Z,22.93
2016-08-04T10:17:47.858Z,23
2016-08-04T10:18:47.902Z,23.05
2016-08-04T10:19:47.905Z,23.1
2016-08-04T10:20:47.919Z,22.98
2016-08-04T10:21:47.944Z,22.9
2016-08-04T10:22:47.974Z,22.85
2016-08-04T10:23:47.997Z,22.8
2016-08-04T10:24:48.041Z,22.91
2016-08-04T10:25:48.035Z,22.98
2016-08-04T10:26:48.065Z,22.81
2016-08-04T10:27:48.080Z,22.73
2016-08-04T10:28:48.114Z,22.72
2016-08-04T10:29:48.127Z,22.91
2016-08-04T10:30:48.149Z,22.96
2016-08-04T10:31:48.167Z,23.03
2016-08-04T10:32:48.189Z,23.06
2016-08-04T10:33:48.229Z,23.18
2016-08-04T10:34:48.246Z,23.25
2016-08-04T10:35:48.266Z,23.5
2016-08-04T10:36:48.279Z,23.59
2016-08-04T10:37:48.304Z,23.71
2016-08-04T10:38:48.322Z,23.74
2016-08-04T10:39:48.359Z,23.71
2016-08-04T10:40:48.384Z,23.84
2016-08-04T10:41:48.396Z,23.92
2016-08-04T10:42:48.418Z,23.84
2016-08-04T10:43:48.439Z,23.93
2016-08-04T10:44:48.468Z,23.96
2016-08-04T10:45:48.480Z,23.91
2016-08-04T10:46:49.221Z,24.01
2016-08-04T10:47:48.534Z,24.14
2016-08-04T10:48:48.551Z,24.1
2016-08-04T10:49:48.579Z,24.17
2016-08-04T10:50:48.615Z,24.21
2016-08-04T10:51:48.622Z,24.24
2016-08-04T10:52:48.643Z,24.14
2016-08-04T10:53:48.671Z,24.02
2016-08-04T10:54:48.695Z,23.93
2016-08-04T10:55:48.712Z,23.96
2016-08-04T10:56:48.737Z,24.11
2016-08-04T10:57:48.750Z,24.23
2016-08-04T10:58:48.794Z,24.17
2016-08-04T10:59:48.808Z,24.28
2016-08-04T11:00:49.549Z,24.33
2016-08-04T11:01:48.843Z,24.45
2016-08-04T11:02:49.600Z,24.3
2016-08-04T11:03:48.951Z,24.1
2016-08-04T11:04:48.955Z,24.01
2016-08-04T11:05:48.945Z,24.1
2016-08-04T11:06:48.975Z,24.14
2016-08-04T11:07:49.033Z,24.28
2016-08-04T11:08:49.040Z,24.36
2016-08-04T11:09:49.027Z,24.39
2016-08-04T11:10:49.113Z,24.47
2016-08-04T11:11:49.129Z,24.51
2016-08-04T11:12:49.155Z,24.5
2016-08-04T11:13:49.157Z,24.35
2016-08-04T11:14:49.164Z,24.06
2016-08-04T11:15:49.174Z,23.98
2016-08-04T11:16:49.202Z,23.74
2016-08-04T11:17:49.241Z,23.47
2016-08-04T11:18:49.272Z,23.34
2016-08-04T11:19:49.263Z,23.24
2016-08-04T11:20:49.357Z,23.34
2016-08-04T11:21:49.310Z,23.5
2016-08-04T11:22:49.331Z,23.51
2016-08-04T11:23:49.359Z,23.59
2016-08-04T11:24:49.381Z,23.76
2016-08-04T11:25:49.403Z,23.8
2016-08-04T11:26:49.416Z,23.96
2016-08-04T11:27:49.451Z,23.93
2016-08-04T11:28:49.473Z,23.95
2016-08-04T11:29:49.497Z,23.91
2016-08-04T11:30:49.519Z,24.01
2016-08-04T11:31:49.530Z,23.93
2016-08-04T11:32:50.289Z,23.99
2016-08-04T11:33:49.580Z,24.18
2016-08-04T11:34:49.611Z,24.21
2016-08-04T11:35:49.640Z,24.24
2016-08-04T11:36:49.661Z,24.35
2016-08-04T11:37:49.675Z,24.48
2016-08-04T11:38:49.705Z,24.5
2016-08-04T11:39:49.726Z,24.51
2016-08-04T11:40:49.748Z,24.6
2016-08-04T11:41:49.767Z,24.74
2016-08-04T11:42:49.790Z,24.73
2016-08-04T11:43:49.817Z,24.73
2016-08-04T11:44:49.841Z,24.7
2016-08-04T11:45:49.859Z,24.66
2016-08-04T11:46:49.883Z,24.76
2016-08-04T11:47:49.905Z,24.85
2016-08-04T11:48:49.928Z,24.81
2016-08-04T11:49:49.951Z,24.81
2016-08-04T11:50:49.979Z,24.77
2016-08-04T11:51:50.000Z,24.69
2016-08-04T11:52:50.014Z,24.55
2016-08-04T11:53:50.037Z,24.48
2016-08-04T11:54:50.068Z,24.58
2016-08-04T11:55:50.304Z,24.7
2016-08-04T11:56:50.112Z,24.7
2016-08-04T11:57:50.139Z,24.7
2016-08-04T11:58:50.158Z,24.73
2016-08-04T11:59:50.186Z,24.78
2016-08-04T12:00:50.210Z,24.93
2016-08-04T12:01:50.272Z,24.88
2016-08-04T12:02:50.253Z,24.88
2016-08-04T12:03:50.274Z,24.92
2016-08-04T12:04:50.303Z,24.77
2016-08-04T12:05:50.320Z,24.78
2016-08-04T12:06:50.339Z,24.7
2016-08-04T12:07:50.365Z,24.76
2016-08-04T12:08:50.400Z,24.74
2016-08-04T12:09:50.414Z,24.84
2016-08-04T12:10:50.432Z,24.78
2016-08-04T12:11:50.464Z,24.74
2016-08-04T12:12:50.481Z,24.66
2016-08-04T12:13:50.538Z,24.8
2016-08-04T12:14:50.527Z,24.8
2016-08-04T12:15:50.559Z,24.63
2016-08-04T12:16:50.580Z,24.8
2016-08-04T12:17:50.655Z,24.99
2016-08-04T12:18:50.614Z,25.1
2016-08-04T12:19:50.643Z,25.06
2016-08-04T12:20:50.666Z,25.17
2016-08-04T12:21:50.696Z,25.08
2016-08-04T12:22:50.717Z,25.08
2016-08-04T12:23:50.730Z,25.01
2016-08-04T12:24:50.763Z,24.93
2016-08-04T12:25:50.780Z,24.95
2016-08-04T12:26:50.798Z,24.88
2016-08-04T12:27:50.834Z,24.88
2016-08-04T12:28:50.855Z,24.84
2016-08-04T12:29:50.878Z,24.7
2016-08-04T12:30:50.904Z,24.7
2016-08-04T12:31:50.921Z,24.68
2016-08-04T12:32:50.949Z,24.63
2016-08-04T12:33:50.973Z,24.54
2016-08-04T12:34:50.991Z,24.4
2016-08-04T12:35:51.014Z,24.42
2016-08-04T12:36:51.039Z,24.5
2016-08-04T12:37:51.058Z,24.65
2016-08-04T12:38:51.091Z,24.66
2016-08-04T12:39:51.124Z,24.63
2016-08-04T12:40:51.136Z,24.69
2016-08-04T12:41:51.146Z,24.76
2016-08-04T12:42:51.179Z,24.84
2016-08-04T12:43:51.200Z,24.86
2016-08-04T12:44:51.228Z,24.86
2016-08-04T12:45:51.250Z,24.51
2016-08-04T12:46:51.270Z,24.43
2016-08-04T12:47:51.303Z,24.39
2016-08-04T12:48:51.319Z,24.43
2016-08-04T12:49:51.337Z,24.4
2016-08-04T12:50:51.366Z,24.38
2016-08-04T12:51:51.382Z,24.35
2016-08-04T12:52:51.417Z,24.21
2016-08-04T12:53:51.427Z,24.13
2016-08-04T12:54:51.456Z,24.26
2016-08-04T12:55:51.469Z,24.16
2016-08-04T12:56:51.508Z,24.16
2016-08-04T12:57:51.520Z,24.28
2016-08-04T12:58:51.543Z,24.17
2016-08-04T12:59:51.572Z,24.11
2016-08-04T13:00:51.592Z,24.2
2016-08-04T13:01:51.618Z,24.01
2016-08-04T13:02:51.631Z,23.91
2016-08-04T13:03:51.666Z,23.84